| time (UTC) | temp C | wind direction | speed KPH | gust KPH | rain 1hr cm | rain 24hr cm | rain mn cm | humidity % | barometer mb |
| 20260510034018 | 24 | 152 | 3.2 | 8.0 | 0.00 | 4.34 | 4.34 | 69 | 1010.6 |
| 20260510033019 | 24 | 155 | 4.8 | 9.7 | 0.00 | 4.34 | 4.34 | 69 | 1010.5 |
| 20260510032019 | 25 | 151 | 4.8 | 11.3 | 0.00 | 4.34 | 4.34 | 69 | 1010.4 |
| 20260510031036 | 25 | 156 | 4.8 | 12.9 | 0.00 | 4.34 | 4.34 | 69 | 1010.4 |
| 20260510030016 | 25 | 151 | 4.8 | 9.7 | 0.00 | 4.34 | 4.34 | 69 | 1010.3 |
| 20260510025016 | 25 | 147 | 4.8 | 8.0 | 0.00 | 4.34 | 4.34 | 69 | 1010.2 |
| 20260510024036 | 25 | 150 | 4.8 | 8.0 | 0.00 | 4.34 | 4.34 | 69 | 1010.1 |
| 20260510023036 | 25 | 152 | 3.2 | 8.0 | 0.00 | 4.34 | 4.34 | 68 | 1010.0 |
| 20260510022016 | 25 | 153 | 3.2 | 8.0 | 0.00 | 4.34 | 4.34 | 67 | 1010.0 |
| 20260510021036 | 26 | 141 | 1.6 | 4.8 | 0.00 | 4.34 | 4.34 | 66 | 1009.9 |
| 20260510020017 | 26 | 150 | 1.6 | 6.4 | 0.00 | 4.34 | 4.34 | 65 | 1009.8 |
| 20260510015017 | 26 | 144 | 1.6 | 6.4 | 0.00 | 4.34 | 4.34 | 64 | 1009.7 |
| 20260510014017 | 26 | 150 | 3.2 | 6.4 | 0.00 | 4.34 | 4.34 | 63 | 1009.5 |
| 20260510013017 | 27 | 140 | 3.2 | 8.0 | 0.00 | 4.34 | 4.34 | 62 | 1009.4 |
| 20260510012017 | 27 | 137 | 1.6 | 6.4 | 0.00 | 4.34 | 4.34 | 61 | 1009.4 |
| 20260510011017 | 28 | 132 | 1.6 | 6.4 | 0.00 | 4.34 | 4.34 | 59 | 1009.4 |
| 20260510010017 | 28 | 128 | 3.2 | 6.4 | 0.00 | 4.34 | 4.34 | 58 | 1009.3 |
| 20260510005018 | 29 | 131 | 3.2 | 8.0 | 0.00 | 4.34 | 4.34 | 56 | 1009.3 |
| 20260510003018 | 30 | 120 | 1.6 | 4.8 | 0.00 | 4.34 | 4.34 | 53 | 1009.2 |
| 20260510002018 | 30 | 125 | 4.8 | 8.0 | 0.00 | 4.34 | 4.34 | 52 | 1009.2 |
| 20260510001018 | 30 | 131 | 3.2 | 11.3 | 0.00 | 4.34 | 4.34 | 51 | 1009.1 |
| 20260510000019 | 31 | 136 | 3.2 | 11.3 | 0.00 | 4.34 | 4.34 | 51 | 1009.1 |
| 20260509235039 | 31 | 116 | 4.8 | 12.9 | 0.00 | 4.34 | 4.34 | 50 | 1009.1 |
| 20260509234016 | 31 | 127 | 3.2 | 6.4 | 0.00 | 4.34 | 4.34 | 51 | 1009.1 |
| 20260509233036 | 31 | 130 | 4.8 | 11.3 | 0.00 | 4.34 | 4.34 | 50 | 1009.1 |
| 20260509232016 | 31 | 140 | 4.8 | 9.7 | 0.00 | 4.34 | 4.34 | 49 | 1009.0 |
| 20260509231016 | 31 | 125 | 3.2 | 8.0 | 0.00 | 4.34 | 4.34 | 47 | 1009.1 |
| 20260509230016 | 31 | 146 | 3.2 | 9.7 | 0.00 | 4.34 | 4.34 | 47 | 1009.1 |
| 20260509225036 | 32 | 120 | 4.8 | 9.7 | 0.00 | 4.34 | 4.34 | 47 | 1009.1 |
| 20260509224016 | 31 | 179 | 1.6 | 8.0 | 0.00 | 4.34 | 4.34 | 44 | 1009.1 |
| 20260509223137 | 31 | 156 | 3.2 | 9.7 | 0.00 | 4.34 | 4.34 | 45 | 1009.1 |
| 20260509222037 | 31 | 151 | 6.4 | 16.1 | 0.00 | 4.34 | 4.34 | 46 | 1009.1 |
| 20260509221017 | 31 | 135 | 4.8 | 9.7 | 0.00 | 4.34 | 4.34 | 45 | 1009.1 |
| 20260509220017 | 31 | 129 | 4.8 | 11.3 | 0.00 | 4.34 | 4.34 | 47 | 1009.2 |
| 20260509215017 | 31 | 118 | 4.8 | 9.7 | 0.00 | 4.34 | 4.34 | 48 | 1009.3 |
| 20260509214017 | 31 | 120 | 4.8 | 11.3 | 0.00 | 4.34 | 4.34 | 48 | 1009.4 |
| 20260509213018 | 31 | 133 | 4.8 | 14.5 | 0.00 | 4.34 | 4.34 | 49 | 1009.5 |
| 20260509212018 | 31 | 138 | 4.8 | 8.0 | 0.00 | 4.34 | 4.34 | 49 | 1009.6 |
| 20260509211018 | 31 | 147 | 4.8 | 12.9 | 0.00 | 4.34 | 4.34 | 49 | 1009.8 |
| 20260509210018 | 31 | 148 | 4.8 | 12.9 | 0.00 | 4.34 | 4.34 | 50 | 1009.9 |
| 20260509204018 | 31 | 166 | 6.4 | 14.5 | 0.00 | 4.34 | 4.34 | 49 | 1010.3 |
| 20260509203018 | 31 | 125 | 4.8 | 11.3 | 0.00 | 4.34 | 4.34 | 50 | 1010.4 |
| 20260509202018 | 30 | 127 | 4.8 | 12.9 | 0.00 | 4.34 | 4.34 | 48 | 1010.5 |
| 20260509201039 | 30 | 171 | 6.4 | 12.9 | 0.00 | 4.34 | 4.34 | 48 | 1010.6 |
| 20260509200016 | 30 | 183 | 4.8 | 11.3 | 0.00 | 4.34 | 4.34 | 46 | 1010.7 |
| 20260509195039 | 30 | 197 | 6.4 | 9.7 | 0.00 | 4.34 | 4.34 | 46 | 1010.9 |
| 20260509194016 | 30 | 138 | 3.2 | 8.0 | 0.00 | 4.34 | 4.34 | 47 | 1010.9 |
| 20260509193036 | 30 | 105 | 3.2 | 9.7 | 0.00 | 4.34 | 4.34 | 47 | 1011.0 |
| 20260509192017 | 30 | 174 | 4.8 | 12.9 | 0.00 | 4.34 | 4.34 | 49 | 1011.1 |
| 20260509191017 | 30 | 125 | 3.2 | 8.0 | 0.00 | 4.34 | 4.34 | 47 | 1011.1 |
| 20260509190017 | 30 | 242 | 3.2 | 6.4 | 0.00 | 4.34 | 4.34 | 47 | 1011.3 |
| 20260509185017 | 29 | 190 | 3.2 | 9.7 | 0.00 | 4.34 | 4.34 | 48 | 1011.4 |
| 20260509184017 | 28 | 251 | 3.2 | 6.4 | 0.00 | 4.34 | 4.34 | 48 | 1011.4 |
| 20260509183037 | 28 | 273 | 3.2 | 8.0 | 0.00 | 4.34 | 4.34 | 49 | 1011.6 |
| 20260509182017 | 28 | 317 | 3.2 | 4.8 | 0.00 | 4.34 | 4.34 | 47 | 1011.7 |
| 20260509181017 | 27 | 309 | 4.8 | 6.4 | 0.00 | 4.34 | 4.34 | 47 | 1011.8 |
| 20260509180017 | 27 | 358 | 3.2 | 4.8 | 0.00 | 4.34 | 4.34 | 51 | 1011.9 |
| 20260509175037 | 27 | 323 | 3.2 | 6.4 | 0.00 | 4.34 | 4.34 | 51 | 1012.1 |
| 20260509173038 | 27 | 353 | 3.2 | 4.8 | 0.00 | 4.34 | 4.34 | 52 | 1012.3 |
| 20260509172018 | 27 | 354 | 3.2 | 4.8 | 0.00 | 4.34 | 4.34 | 52 | 1012.4 |
| 20260509171018 | 27 | 340 | 3.2 | 4.8 | 0.00 | 4.34 | 4.34 | 50 | 1012.4 |
| 20260509170018 | 27 | 349 | 1.6 | 3.2 | 0.00 | 4.34 | 4.34 | 52 | 1012.4 |
| 20260509165018 | 26 | 338 | 1.6 | 3.2 | 0.00 | 4.34 | 4.34 | 54 | 1012.5 |
| 20260509164016 | 26 | 292 | 1.6 | 4.8 | 0.00 | 4.34 | 4.34 | 60 | 1012.5 |
| 20260509163016 | 25 | 307 | 3.2 | 4.8 | 0.00 | 4.34 | 4.34 | 62 | 1012.7 |
| 20260509162016 | 25 | 313 | 3.2 | 4.8 | 0.00 | 4.34 | 4.34 | 66 | 1012.7 |
| 20260509161056 | 25 | 321 | 1.6 | 3.2 | 0.00 | 4.34 | 4.34 | 69 | 1012.8 |
| 20260509160036 | 25 | 325 | 1.6 | 3.2 | 0.00 | 4.34 | 4.34 | 71 | 1012.7 |
| 20260509155016 | 24 | 320 | 1.6 | 3.2 | 0.00 | 4.34 | 4.34 | 72 | 1012.7 |
| 20260509154016 | 24 | 326 | 1.6 | 3.2 | 0.00 | 4.34 | 4.34 | 73 | 1012.7 |
| 20260509153016 | 23 | 338 | 1.6 | 4.8 | 0.00 | 4.34 | 4.34 | 75 | 1012.7 |
| 20260509152017 | 23 | 298 | 1.6 | 3.2 | 0.00 | 4.34 | 4.34 | 75 | 1012.7 |
| 20260509151017 | 22 | 328 | 3.2 | 4.8 | 0.00 | 4.34 | 4.34 | 78 | 1012.7 |
| 20260509150017 | 22 | 309 | 3.2 | 3.2 | 0.00 | 4.34 | 4.34 | 79 | 1012.7 |
| 20260509145017 | 21 | 297 | 3.2 | 3.2 | 0.00 | 4.34 | 4.34 | 79 | 1012.7 |
| 20260509144017 | 20 | 296 | 3.2 | 4.8 | 0.00 | 4.34 | 4.34 | 81 | 1012.8 |
| 20260509143017 | 20 | 306 | 4.8 | 6.4 | 0.00 | 4.34 | 4.34 | 81 | 1012.8 |
| 20260509142018 | 20 | 293 | 3.2 | 4.8 | 0.00 | 4.34 | 4.34 | 82 | 1012.8 |
| 20260509141018 | 20 | 263 | 6.4 | 8.0 | 0.00 | 4.34 | 4.34 | 83 | 1012.9 |
| 20260509140018 | 19 | 263 | 8.0 | 9.7 | 0.00 | 4.34 | 4.34 | 83 | 1012.8 |
| 20260509135018 | 18 | 270 | 4.8 | 6.4 | 0.00 | 4.34 | 4.34 | 84 | 1012.7 |
| 20260509134018 | 18 | 254 | 1.6 | 6.4 | 0.00 | 4.34 | 4.34 | 85 | 1012.7 |
| 20260509133039 | 18 | 300 | 3.2 | 6.4 | 0.00 | 4.34 | 4.34 | 87 | 1012.7 |
| 20260509132018 | 17 | 278 | 6.4 | 8.0 | 0.00 | 4.34 | 4.34 | 88 | 1012.4 |
| 20260509131038 | 17 | 266 | 4.8 | 6.4 | 0.00 | 4.34 | 4.34 | 88 | 1012.3 |
| 20260509130019 | 17 | 255 | 4.8 | 6.4 | 0.00 | 4.34 | 4.34 | 89 | 1012.4 |
| 20260509125016 | 17 | 267 | 4.8 | 6.4 | 0.00 | 4.34 | 4.34 | 91 | 1012.2 |
| 20260509124016 | 17 | 249 | 4.8 | 6.4 | 0.00 | 4.34 | 4.34 | 91 | 1012.1 |
| 20260509123016 | 17 | 182 | 1.6 | 4.8 | 0.00 | 4.34 | 4.34 | 91 | 1012.0 |
| 20260509122016 | 17 | 218 | 3.2 | 6.4 | 0.00 | 4.34 | 4.34 | 91 | 1011.8 |
| 20260509121017 | 17 | 266 | 11.3 | 16.1 | 0.00 | 4.34 | 4.34 | 91 | 1011.4 |
| 20260509120016 | 17 | 275 | 14.5 | 19.3 | 0.00 | 4.34 | 4.34 | 91 | 1011.3 |
| 20260509115019 | 17 | 265 | 12.9 | 16.1 | 0.00 | 4.34 | 4.34 | 91 | 1011.4 |
| 20260509114016 | 17 | 268 | 12.9 | 16.1 | 0.00 | 4.34 | 4.34 | 91 | 1011.4 |
| 20260509113017 | 17 | 265 | 12.9 | 17.7 | 0.00 | 4.34 | 4.34 | 91 | 1011.3 |
| 20260509112017 | 17 | 259 | 11.3 | 17.7 | 0.00 | 4.34 | 4.34 | 91 | 1011.3 |
| 20260509111017 | 17 | 272 | 16.1 | 22.5 | 0.00 | 4.34 | 4.34 | 91 | 1010.9 |
| 20260509110017 | 17 | 265 | 17.7 | 24.1 | 0.03 | 4.34 | 4.34 | 89 | 1010.7 |
| 20260509105017 | 18 | 273 | 17.7 | 25.7 | 0.03 | 4.34 | 4.34 | 88 | 1010.7 |
| 20260509104017 | 17 | 253 | 16.1 | 22.5 | 0.05 | 4.34 | 4.34 | 87 | 1010.6 |
| 20260509103016 | 18 | 250 | 14.5 | 24.1 | 0.08 | 4.34 | 4.34 | 85 | 1010.6 |
| 20260509102016 | 17 | 258 | 19.3 | 27.4 | 0.08 | 4.34 | 4.34 | 89 | 1010.3 |
| 20260509101036 | 17 | 300 | 22.5 | 29.0 | 0.08 | 4.34 | 4.34 | 89 | 1010.1 |
| 20260509100017 | 17 | 336 | 12.9 | 29.0 | 0.08 | 4.32 | 4.32 | 89 | 1010.3 |
| 20260509095017 | 16 | 266 | 20.9 | 30.6 | 0.10 | 4.32 | 4.32 | 90 | 1010.1 |
| 20260509094036 | 16 | 131 | 12.9 | 27.4 | 0.30 | 4.32 | 4.32 | 95 | 1009.3 |
| 20260509093016 | 16 | 110 | 12.9 | 25.7 | 1.83 | 4.27 | 4.27 | 95 | 1010.4 |
| 20260509092016 | 17 | 111 | 9.7 | 19.3 | 4.11 | 4.27 | 4.27 | 94 | 1010.9 |
| 20260509091016 | 17 | 110 | 12.9 | 22.5 | 4.27 | 4.27 | 4.27 | 96 | 1011.4 |
| 20260509090017 | 17 | 119 | 8.0 | 12.9 | 4.27 | 4.27 | 4.27 | 99 | 1012.6 |
| 20260509085016 | 17 | 140 | 8.0 | 16.1 | 4.22 | 4.22 | 4.22 | 99 | 1012.9 |
| 20260509084037 | 18 | 94 | 11.3 | 20.9 | 4.01 | 4.01 | 4.01 | 98 | 1013.6 |
| 20260509083057 | 19 | 58 | 14.5 | 41.8 | 2.44 | 2.44 | 2.44 | 98 | 1014.0 |
| 20260509082017 | 20 | 42 | 14.5 | 25.7 | 0.15 | 0.15 | 0.15 | 97 | 1014.0 |
| 20260509081017 | 19 | 13 | 14.5 | 20.9 | 0.00 | 0.00 | 0.00 | 99 | 1013.5 |
| 20260509080017 | 19 | 350 | 8.0 | 11.3 | 0.00 | 0.00 | 0.00 | 99 | 1013.0 |
| 20260509075037 | 18 | 314 | 1.6 | 3.2 | 0.00 | 0.00 | 0.00 | 99 | 1013.0 |
| 20260509074018 | 18 | 255 | 0.0 | 3.2 | 0.00 | 0.00 | 0.00 | 99 | 1012.9 |
| 20260509073038 | 18 | 139 | 1.6 | 6.4 | 0.00 | 0.00 | 0.00 | 99 | 1013.0 |
| 20260509072018 | 18 | 37 | 8.0 | 17.7 | 0.00 | 0.00 | 0.00 | 99 | 1013.1 |
| 20260509071018 | 18 | 66 | 3.2 | 12.9 | 0.00 | 0.00 | 0.00 | 99 | 1012.0 |
| 20260509070018 | 18 | 135 | 4.8 | 9.7 | 0.00 | 0.00 | 0.00 | 99 | 1011.6 |
| 20260509065018 | 18 | 140 | 6.4 | 12.9 | 0.00 | 0.00 | 0.00 | 99 | 1011.4 |
| 20260509064018 | 18 | 145 | 6.4 | 14.5 | 0.00 | 0.00 | 0.00 | 99 | 1011.3 |
| 20260509063038 | 18 | 147 | 6.4 | 12.9 | 0.00 | 0.00 | 0.00 | 99 | 1011.1 |
| 20260509062016 | 18 | 151 | 6.4 | 16.1 | 0.00 | 0.00 | 0.00 | 99 | 1011.0 |
| 20260509061036 | 18 | 143 | 4.8 | 11.3 | 0.00 | 0.00 | 0.00 | 100 | 1010.9 |
| 20260509060116 | 18 | 148 | 4.8 | 11.3 | 0.00 | 0.00 | 0.00 | 99 | 1010.7 |
| 20260509055016 | 18 | 126 | 4.8 | 9.7 | 0.00 | 0.00 | 0.00 | 99 | 1010.7 |
| 20260509054016 | 18 | 133 | 4.8 | 11.3 | 0.00 | 0.00 | 0.00 | 99 | 1010.7 |
| 20260509053017 | 18 | 140 | 4.8 | 9.7 | 0.00 | 0.00 | 0.00 | 98 | 1010.7 |
| 20260509052017 | 19 | 122 | 4.8 | 9.7 | 0.00 | 0.00 | 0.00 | 97 | 1010.8 |
| 20260509051016 | 19 | 139 | 6.4 | 11.3 | 0.00 | 0.00 | 0.00 | 97 | 1010.8 |
| 20260509050017 | 19 | 136 | 4.8 | 9.7 | 0.00 | 0.00 | 0.00 | 96 | 1011.1 |
| 20260509045017 | 19 | 141 | 4.8 | 9.7 | 0.00 | 0.00 | 0.00 | 96 | 1011.4 |
| 20260509044017 | 19 | 133 | 3.2 | 9.7 | 0.00 | 0.00 | 0.00 | 96 | 1011.3 |
| 20260509043017 | 19 | 148 | 4.8 | 9.7 | 0.00 | 0.00 | 0.00 | 96 | 1011.0 |
| 20260509042018 | 20 | 119 | 4.8 | 8.0 | 0.00 | 0.00 | 0.00 | 95 | 1010.9 |
| 20260509041018 | 20 | 128 | 3.2 | 8.0 | 0.00 | 0.00 | 0.00 | 95 | 1011.0 |
| 20260509040037 | 20 | 116 | 3.2 | 6.4 | 0.00 | 0.00 | 0.00 | 94 | 1011.0 |
| 20260509035018 | 20 | 134 | 1.6 | 8.0 | 0.00 | 0.00 | 0.00 | 94 | 1011.0 |